Time;durP1;ratioP1;P1;durP2;ratioP2;P2;SDS_P1;SDS_P2;PMS_P1;PMS_P2;Temp;Humidity;BMP_temperature;BMP_pressure;BME280_temperature;BME280_humidity;BME280_pressure;Samples;Min_cycle;Max_cycle;Signal;HPM_P1;HPM_P2
2024/03/16 00:00:40;0.00;0.00;0.62;0.00;0.00;0.62;2.77;2.27;;;24.70;26.60;;;;;;2252145;61;20380;-64
2024/03/16 00:03:06;0.00;0.00;0.62;0.00;0.00;0.62;2.80;2.27;;;24.70;26.60;;;;;;2248771;61;20350;-65
2024/03/16 00:05:32;0.00;0.00;0.62;0.00;0.00;0.62;3.40;2.10;;;24.70;26.60;;;;;;2253771;61;20373;-64
2024/03/16 00:07:58;0.00;0.00;0.62;0.00;0.00;0.62;2.87;2.30;;;24.70;26.60;;;;;;2255180;61;20657;-65
2024/03/16 00:10:25;0.00;0.00;0.62;0.00;0.00;0.62;3.43;2.10;;;24.70;26.60;;;;;;2255125;61;20381;-62
2024/03/16 00:12:51;0.00;0.00;0.62;0.00;0.00;0.62;3.00;1.80;;;24.70;26.60;;;;;;2254960;61;20763;-64
2024/03/16 00:15:18;0.00;0.00;0.62;0.00;0.00;0.62;4.37;1.97;;;24.70;26.50;;;;;;2252152;61;20436;-64
2024/03/16 00:17:44;0.00;0.00;0.62;0.00;0.00;0.62;2.73;2.00;;;24.60;26.50;;;;;;2251842;61;20457;-65
2024/03/16 00:20:10;0.00;0.00;0.62;0.00;0.00;0.62;3.80;2.13;;;24.70;26.60;;;;;;2249935;61;20354;-65
2024/03/16 00:22:37;0.00;0.00;0.62;0.00;0.00;0.62;2.60;2.00;;;24.60;26.50;;;;;;2255401;61;20358;-65
2024/03/16 00:25:04;0.00;0.00;0.62;0.00;0.00;0.62;4.20;2.70;;;24.70;27.00;;;;;;2255173;61;20875;-64
2024/03/16 00:27:30;0.00;0.00;0.62;0.00;0.00;0.62;4.57;2.40;;;24.60;26.50;;;;;;2254962;61;20355;-64
2024/03/16 00:29:56;0.00;0.00;0.62;0.00;0.00;0.62;3.30;2.23;;;24.60;26.50;;;;;;2248740;61;20960;-65
2024/03/16 00:32:23;0.00;0.00;0.62;0.00;0.00;0.62;3.23;2.20;;;24.70;26.50;;;;;;2248612;61;20384;-64
2024/03/16 00:34:49;0.00;0.00;0.62;0.00;0.00;0.62;3.50;2.10;;;24.60;26.50;;;;;;2247147;61;20353;-65
2024/03/16 00:37:16;0.00;0.00;0.62;0.00;0.00;0.62;2.50;1.80;;;24.60;26.50;;;;;;2255929;61;20355;-63
2024/03/16 00:39:42;0.00;0.00;0.62;0.00;0.00;0.62;3.93;2.40;;;24.60;26.50;;;;;;2255880;61;20446;-62
2024/03/16 00:42:09;0.00;0.00;0.62;0.00;0.00;0.62;3.93;2.37;;;24.60;26.50;;;;;;2254788;61;20388;-63
2024/03/16 00:44:36;0.00;0.00;0.62;0.00;0.00;0.62;2.87;2.07;;;24.60;26.40;;;;;;2248920;61;20496;-63
2024/03/16 00:47:02;0.00;0.00;0.62;0.00;0.00;0.62;2.73;1.50;;;24.60;26.40;;;;;;2248856;61;20400;-64
2024/03/16 00:49:28;0.00;0.00;0.62;0.00;0.00;0.62;3.63;1.90;;;24.60;26.50;;;;;;2250229;61;20361;-64
2024/03/16 00:51:55;0.00;0.00;0.62;0.00;0.00;0.62;3.63;2.40;;;24.60;26.50;;;;;;2252586;61;20384;-64
2024/03/16 00:54:21;0.00;0.00;0.62;0.00;0.00;0.62;3.10;2.00;;;24.60;26.40;;;;;;2252779;61;20897;-64
2024/03/16 00:56:48;0.00;0.00;0.62;0.00;0.00;0.62;2.67;1.87;;;24.60;26.50;;;;;;2252621;61;20385;-65
2024/03/16 00:59:14;0.00;0.00;0.62;0.00;0.00;0.62;3.27;2.47;;;24.60;26.40;;;;;;2255142;61;20431;-64
2024/03/16 01:01:40;0.00;0.00;0.62;0.00;0.00;0.62;3.10;2.00;;;24.60;26.50;;;;;;2255086;61;20944;-65
2024/03/16 01:04:07;0.00;0.00;0.62;0.00;0.00;0.62;4.03;2.43;;;24.60;26.40;;;;;;2254844;61;20449;-65
2024/03/16 01:06:34;0.00;0.00;0.62;0.00;0.00;0.62;2.80;2.20;;;24.60;26.50;;;;;;2248583;61;20802;-65
2024/03/16 01:09:00;0.00;0.00;0.62;0.00;0.00;0.62;2.97;1.90;;;24.60;26.50;;;;;;2248659;61;20452;-64
2024/03/16 01:11:26;0.00;0.00;0.62;0.00;0.00;0.62;2.47;1.80;;;24.60;26.50;;;;;;2248897;61;20374;-63
2024/03/16 01:13:53;0.00;0.00;0.62;0.00;0.00;0.62;4.20;2.53;;;24.60;26.50;;;;;;2251886;61;20456;-64
2024/03/16 01:16:19;0.00;0.00;0.62;0.00;0.00;0.62;3.23;2.17;;;24.60;26.50;;;;;;2251921;61;20374;-65
2024/03/16 01:18:45;0.00;0.00;0.62;0.00;0.00;0.62;4.20;1.80;;;24.50;26.40;;;;;;2249565;61;20364;-64
2024/03/16 01:21:12;0.00;0.00;0.62;0.00;0.00;0.62;2.90;1.90;;;24.50;26.40;;;;;;2253310;61;20349;-65
2024/03/16 01:23:38;0.00;0.00;0.62;0.00;0.00;0.62;7.00;3.40;;;24.50;26.40;;;;;;2253451;61;21149;-65
2024/03/16 01:26:05;0.00;0.00;0.62;0.00;0.00;0.62;2.73;1.83;;;24.50;26.40;;;;;;2252230;61;20385;-65
2024/03/16 01:28:35;0.00;0.00;0.62;0.00;0.00;0.62;3.23;1.70;;;24.50;26.40;;;;;;2252642;61;20891;-65
2024/03/16 01:31:01;0.00;0.00;0.62;0.00;0.00;0.62;3.50;2.30;;;24.50;26.40;;;;;;2252547;61;20439;-64
2024/03/16 01:33:27;0.00;0.00;0.62;0.00;0.00;0.62;3.70;2.00;;;24.50;26.90;;;;;;2252787;61;20353;-64
2024/03/16 01:35:54;0.00;0.00;0.62;0.00;0.00;0.62;4.57;1.80;;;24.50;26.40;;;;;;2255740;61;20370;-64
2024/03/16 01:38:20;0.00;0.00;0.62;0.00;0.00;0.62;4.00;1.80;;;24.50;26.40;;;;;;2255920;61;20357;-65
2024/03/16 01:40:46;0.00;0.00;0.62;0.00;0.00;0.62;3.33;1.93;;;24.50;26.90;;;;;;2255133;61;20369;-64
2024/03/16 01:43:13;0.00;0.00;0.62;0.00;0.00;0.62;4.00;1.90;;;24.50;26.40;;;;;;2249353;61;20350;-63
2024/03/16 01:45:40;0.00;0.00;0.62;0.00;0.00;0.62;3.07;2.00;;;24.50;26.40;;;;;;2249037;61;20366;-64
2024/03/16 01:48:09;0.00;0.00;0.62;0.00;0.00;0.62;3.40;2.10;;;24.50;26.90;;;;;;2249793;61;20462;-65
2024/03/16 01:50:36;0.00;0.00;0.62;0.00;0.00;0.62;3.70;2.20;;;24.50;26.40;;;;;;2253275;61;20373;-65
2024/03/16 01:53:03;0.00;0.00;0.62;0.00;0.00;0.62;3.07;1.70;;;24.50;26.40;;;;;;2253523;61;20349;-65
2024/03/16 01:55:29;0.00;0.00;0.62;0.00;0.00;0.62;4.97;2.20;;;24.40;26.30;;;;;;2252070;61;20453;-65
2024/03/16 01:57:55;0.00;0.00;0.62;0.00;0.00;0.62;3.10;2.00;;;24.40;26.30;;;;;;2252434;61;20406;-64
2024/03/16 02:00:22;0.00;0.00;0.62;0.00;0.00;0.62;4.20;2.00;;;24.40;26.30;;;;;;2252367;61;20342;-63
2024/03/16 02:02:48;0.00;0.00;0.62;0.00;0.00;0.62;4.20;1.73;;;24.40;26.30;;;;;;2251705;61;20358;-64
2024/03/16 02:05:14;0.00;0.00;0.62;0.00;0.00;0.62;4.77;1.93;;;24.40;26.90;;;;;;2252704;61;20376;-65
2024/03/16 02:07:50;0.00;0.00;0.62;0.00;0.00;0.62;2.07;1.40;;;24.40;26.40;;;;;;2252596;61;20400;-65
2024/03/16 02:10:16;0.00;0.00;0.62;0.00;0.00;0.62;3.13;1.63;;;24.40;26.30;;;;;;2249153;61;20910;-64
2024/03/16 02:12:43;0.00;0.00;0.62;0.00;0.00;0.62;2.37;1.60;;;24.40;26.30;;;;;;2249131;61;20346;-64
2024/03/16 02:15:10;0.00;0.00;0.62;0.00;0.00;0.62;4.00;2.03;;;24.40;26.40;;;;;;2249257;61;20389;-64
2024/03/16 02:17:36;0.00;0.00;0.62;0.00;0.00;0.62;3.43;1.90;;;24.40;26.30;;;;;;2248916;61;20443;-64
2024/03/16 02:20:04;0.00;0.00;0.62;0.00;0.00;0.62;3.60;1.87;;;24.40;26.30;;;;;;2245664;61;20759;-66
2024/03/16 02:22:30;0.00;0.00;0.62;0.00;0.00;0.62;3.20;1.73;;;24.40;26.40;;;;;;2249429;61;20354;-64
2024/03/16 02:24:56;0.00;0.00;0.62;0.00;0.00;0.62;2.97;1.70;;;24.40;26.30;;;;;;2249241;61;20358;-66
2024/03/16 02:27:23;0.00;0.00;0.62;0.00;0.00;0.62;5.63;1.70;;;24.40;26.40;;;;;;2250099;61;20362;-66
2024/03/16 02:29:49;0.00;0.00;0.62;0.00;0.00;0.62;3.33;1.53;;;24.40;26.30;;;;;;2252078;61;20408;-65
2024/03/16 02:32:15;0.00;0.00;0.62;0.00;0.00;0.62;2.90;1.47;;;24.40;26.40;;;;;;2252538;61;20346;-65
2024/03/16 02:34:42;0.00;0.00;0.62;0.00;0.00;0.62;2.73;1.63;;;24.40;26.30;;;;;;2252234;61;20593;-64
2024/03/16 02:37:08;0.00;0.00;0.62;0.00;0.00;0.62;3.17;1.60;;;24.40;26.40;;;;;;2252631;61;20367;-65
2024/03/16 02:39:35;0.00;0.00;0.62;0.00;0.00;0.62;2.23;1.40;;;24.40;26.40;;;;;;2252501;61;20363;-65
2024/03/16 02:42:02;0.00;0.00;0.62;0.00;0.00;0.62;2.53;1.60;;;24.40;26.40;;;;;;2252254;61;20412;-65
2024/03/16 02:44:29;0.00;0.00;0.62;0.00;0.00;0.62;4.63;1.90;;;24.40;26.30;;;;;;2252796;61;20443;-65
2024/03/16 02:46:56;0.00;0.00;0.62;0.00;0.00;0.62;3.87;1.80;;;24.40;26.40;;;;;;2252404;61;20366;-65
2024/03/16 02:49:22;0.00;0.00;0.62;0.00;0.00;0.62;3.00;1.57;;;24.40;26.30;;;;;;2251983;61;20882;-64
2024/03/16 02:51:48;0.00;0.00;0.62;0.00;0.00;0.62;3.53;1.30;;;24.40;26.30;;;;;;2252416;61;20464;-65
2024/03/16 02:54:15;0.00;0.00;0.62;0.00;0.00;0.62;2.17;1.47;;;24.40;26.40;;;;;;2252444;61;20346;-68
2024/03/16 02:56:41;0.00;0.00;0.62;0.00;0.00;0.62;2.87;1.47;;;24.30;26.30;;;;;;2252758;61;20373;-65
2024/03/16 02:59:08;0.00;0.00;0.62;0.00;0.00;0.62;2.57;1.50;;;24.30;26.30;;;;;;2253526;61;20874;-64
2024/03/16 03:01:35;0.00;0.00;0.62;0.00;0.00;0.62;2.60;1.67;;;24.40;26.30;;;;;;2253158;61;20883;-65
2024/03/16 03:04:02;0.00;0.00;0.62;0.00;0.00;0.62;2.20;1.50;;;24.40;26.30;;;;;;2252574;61;20393;-65
2024/03/16 03:06:28;0.00;0.00;0.62;0.00;0.00;0.62;2.10;1.23;;;24.40;26.80;;;;;;2255854;61;21030;-65
2024/03/16 03:08:54;0.00;0.00;0.62;0.00;0.00;0.62;2.43;1.30;;;24.30;26.30;;;;;;2255545;61;20354;-65
2024/03/16 03:11:21;0.00;0.00;0.62;0.00;0.00;0.62;3.10;1.90;;;24.30;26.30;;;;;;2253525;61;20394;-65
2024/03/16 03:13:47;0.00;0.00;0.62;0.00;0.00;0.62;2.30;1.40;;;24.40;26.30;;;;;;2249019;61;20361;-65
2024/03/16 03:16:19;0.00;0.00;0.62;0.00;0.00;0.62;3.30;1.90;;;24.30;26.30;;;;;;2248695;61;20381;-65
2024/03/16 03:18:46;0.00;0.00;0.62;0.00;0.00;0.62;3.83;1.73;;;24.30;26.80;;;;;;2251363;61;20764;-63
2024/03/16 03:21:13;0.00;0.00;0.62;0.00;0.00;0.62;2.93;1.57;;;24.30;26.80;;;;;;2252980;61;20349;-64
2024/03/16 03:23:39;0.00;0.00;0.62;0.00;0.00;0.62;2.77;1.50;;;24.30;26.20;;;;;;2251703;61;20358;-63
2024/03/16 03:26:06;0.00;0.00;0.62;0.00;0.00;0.62;2.40;1.50;;;24.30;26.20;;;;;;2250227;61;20377;-65
2024/03/16 03:28:32;0.00;0.00;0.62;0.00;0.00;0.62;3.40;1.53;;;24.30;26.30;;;;;;2252926;61;20445;-64
2024/03/16 03:30:58;0.00;0.00;0.62;0.00;0.00;0.62;3.40;1.77;;;24.30;26.30;;;;;;2252656;61;20381;-65
2024/03/16 03:33:25;0.00;0.00;0.62;0.00;0.00;0.62;3.57;1.80;;;24.30;26.20;;;;;;2253035;61;20401;-65
2024/03/16 03:35:51;0.00;0.00;0.62;0.00;0.00;0.62;3.10;1.30;;;24.30;26.20;;;;;;2255482;61;20380;-63
2024/03/16 03:38:17;0.00;0.00;0.62;0.00;0.00;0.62;3.33;1.70;;;24.30;26.20;;;;;;2255241;61;20342;-63
2024/03/16 03:40:44;0.00;0.00;0.62;0.00;0.00;0.62;3.47;1.60;;;24.30;26.20;;;;;;2255384;61;20349;-64
2024/03/16 03:43:22;0.00;0.00;0.62;0.00;0.00;0.62;3.20;1.50;;;24.30;26.20;;;;;;2252929;61;20372;-65
2024/03/16 03:45:57;0.00;0.00;0.62;0.00;0.00;0.62;3.00;1.50;;;24.30;26.20;;;;;;2253946;61;20479;-64
2024/03/16 03:50:49;0.00;0.00;0.62;0.00;0.00;0.62;3.10;1.77;;;24.30;26.20;;;;;;2255220;61;20384;-64
2024/03/16 03:53:16;0.00;0.00;0.62;0.00;0.00;0.62;5.13;2.10;;;24.30;26.80;;;;;;2255409;61;20766;-64
2024/03/16 03:55:42;0.00;0.00;0.62;0.00;0.00;0.62;2.83;1.67;;;24.30;26.20;;;;;;2252677;61;20796;-63
2024/03/16 03:58:08;0.00;0.00;0.62;0.00;0.00;0.62;2.77;1.53;;;24.30;26.20;;;;;;2254091;61;20362;-64
2024/03/16 04:00:35;0.00;0.00;0.62;0.00;0.00;0.62;3.90;2.10;;;24.30;26.20;;;;;;2253478;61;20341;-66
2024/03/16 04:03:01;0.00;0.00;0.62;0.00;0.00;0.62;4.07;2.03;;;24.30;26.20;;;;;;2253580;61;20347;-66
2024/03/16 04:05:27;0.00;0.00;0.62;0.00;0.00;0.62;4.13;2.10;;;24.30;26.20;;;;;;2255888;61;20377;-64
2024/03/16 04:07:54;0.00;0.00;0.62;0.00;0.00;0.62;2.53;1.70;;;24.30;26.20;;;;;;2255219;61;20350;-66
2024/03/16 04:10:21;0.00;0.00;0.62;0.00;0.00;0.62;2.83;2.10;;;24.30;26.20;;;;;;2254624;61;20755;-65
2024/03/16 04:12:47;0.00;0.00;0.62;0.00;0.00;0.62;4.33;2.20;;;24.30;26.20;;;;;;2252160;61;20437;-65
2024/03/16 04:15:14;0.00;0.00;0.62;0.00;0.00;0.62;3.80;1.67;;;24.20;26.20;;;;;;2251914;61;20388;-65
2024/03/16 04:17:40;0.00;0.00;0.62;0.00;0.00;0.62;4.30;2.10;;;24.20;26.20;;;;;;2252944;61;20449;-65
2024/03/16 04:20:10;0.00;0.00;0.62;0.00;0.00;0.62;5.23;2.00;;;24.20;26.20;;;;;;2255138;61;20408;-65
2024/03/16 04:22:36;0.00;0.00;0.62;0.00;0.00;0.62;3.57;2.10;;;24.20;26.20;;;;;;2252176;61;20864;-64
2024/03/16 04:25:12;0.00;0.00;0.62;0.00;0.00;0.62;2.63;1.60;;;24.20;26.70;;;;;;2255562;61;20361;-65
2024/03/16 04:27:38;0.00;0.00;0.62;0.00;0.00;0.62;3.60;1.83;;;24.20;26.20;;;;;;2253642;61;20452;-64
2024/03/16 04:30:08;0.00;0.00;0.62;0.00;0.00;0.62;4.07;2.03;;;24.20;26.20;;;;;;2252424;61;20356;-65
2024/03/16 04:32:35;0.00;0.00;0.62;0.00;0.00;0.62;2.27;1.80;;;24.20;26.20;;;;;;2254801;61;20829;-64
2024/03/16 04:35:01;0.00;0.00;0.62;0.00;0.00;0.62;2.50;1.80;;;24.20;26.20;;;;;;2248741;61;20342;-65
2024/03/16 04:37:28;0.00;0.00;0.62;0.00;0.00;0.62;3.70;2.27;;;24.20;26.20;;;;;;2248679;61;20357;-65
2024/03/16 04:39:55;0.00;0.00;0.62;0.00;0.00;0.62;3.00;2.10;;;24.20;26.20;;;;;;2249883;61;20439;-64
2024/03/16 04:42:21;0.00;0.00;0.62;0.00;0.00;0.62;6.57;1.97;;;24.20;26.20;;;;;;2253617;61;20368;-65
2024/03/16 04:44:48;0.00;0.00;0.62;0.00;0.00;0.62;3.23;1.80;;;24.20;26.20;;;;;;2255083;61;20849;-65
2024/03/16 04:47:14;0.00;0.00;0.62;0.00;0.00;0.62;4.13;1.80;;;24.20;26.20;;;;;;2254953;61;20921;-65
2024/03/16 04:49:40;0.00;0.00;0.62;0.00;0.00;0.62;3.03;1.90;;;24.20;26.20;;;;;;2252694;61;20523;-63
2024/03/16 04:52:07;0.00;0.00;0.62;0.00;0.00;0.62;3.50;2.10;;;24.20;26.20;;;;;;2252669;61;20466;-63
2024/03/16 04:54:33;0.00;0.00;0.62;0.00;0.00;0.62;2.57;2.07;;;24.20;26.20;;;;;;2251928;61;20851;-65
2024/03/16 04:57:00;0.00;0.00;0.62;0.00;0.00;0.62;5.43;2.03;;;24.20;26.20;;;;;;2249205;61;20369;-65
2024/03/16 04:59:26;0.00;0.00;0.62;0.00;0.00;0.62;3.17;1.80;;;24.20;26.20;;;;;;2252594;61;20873;-65
2024/03/16 05:01:53;0.00;0.00;0.62;0.00;0.00;0.62;3.03;1.90;;;24.20;26.20;;;;;;2252143;61;20404;-64
2024/03/16 05:04:19;0.00;0.00;0.62;0.00;0.00;0.62;3.20;1.93;;;24.20;26.20;;;;;;2252712;61;20901;-64
2024/03/16 05:06:46;0.00;0.00;0.62;0.00;0.00;0.62;3.33;2.20;;;24.20;26.20;;;;;;2252540;61;20370;-64
2024/03/16 05:09:12;0.00;0.00;0.62;0.00;0.00;0.62;3.10;1.80;;;24.20;26.20;;;;;;2248489;61;20465;-65
2024/03/16 05:11:39;0.00;0.00;0.62;0.00;0.00;0.62;2.20;1.50;;;24.20;26.20;;;;;;2252402;61;20464;-64
2024/03/16 05:14:07;0.00;0.00;0.62;0.00;0.00;0.62;3.43;2.10;;;24.20;26.20;;;;;;2252505;61;20365;-64
2024/03/16 05:16:34;0.00;0.00;0.62;0.00;0.00;0.62;4.23;2.07;;;24.10;26.10;;;;;;2249057;61;20420;-64
2024/03/16 05:19:03;0.00;0.00;0.62;0.00;0.00;0.62;2.97;1.60;;;24.10;26.10;;;;;;2252501;61;20356;-64
2024/03/16 05:21:29;0.00;0.00;0.62;0.00;0.00;0.62;2.50;1.53;;;24.10;26.10;;;;;;2252624;61;20971;-64
2024/03/16 05:23:56;0.00;0.00;0.62;0.00;0.00;0.62;2.10;1.70;;;24.10;26.10;;;;;;2252724;61;20447;-64
2024/03/16 05:26:22;0.00;0.00;0.62;0.00;0.00;0.62;2.73;2.10;;;24.10;26.20;;;;;;2255908;61;20377;-65
2024/03/16 05:28:48;0.00;0.00;0.62;0.00;0.00;0.62;3.40;2.13;;;24.10;26.10;;;;;;2255722;61;20362;-65
2024/03/16 05:31:15;0.00;0.00;0.62;0.00;0.00;0.62;3.57;2.33;;;24.10;26.10;;;;;;2251828;61;20377;-64
2024/03/16 05:33:42;0.00;0.00;0.62;0.00;0.00;0.62;2.87;2.10;;;24.10;26.10;;;;;;2252665;61;20360;-64
2024/03/16 05:36:14;0.00;0.00;0.62;0.00;0.00;0.62;4.30;2.00;;;24.10;26.10;;;;;;2252331;61;20462;-65
2024/03/16 05:38:43;0.00;0.00;0.62;0.00;0.00;0.62;2.27;1.83;;;24.10;26.10;;;;;;2253755;61;20899;-65
2024/03/16 05:41:09;0.00;0.00;0.62;0.00;0.00;0.62;3.73;2.47;;;24.10;26.10;;;;;;2253423;61;20819;-63
2024/03/16 05:43:36;0.00;0.00;0.62;0.00;0.00;0.62;3.37;2.33;;;24.10;26.10;;;;;;2253224;61;20432;-64
2024/03/16 05:46:02;0.00;0.00;0.62;0.00;0.00;0.62;5.17;2.30;;;24.10;26.10;;;;;;2251892;61;20374;-65
2024/03/16 05:48:29;0.00;0.00;0.62;0.00;0.00;0.62;3.87;2.33;;;24.10;26.10;;;;;;2252418;61;20382;-64
2024/03/16 05:50:57;0.00;0.00;0.62;0.00;0.00;0.62;3.00;2.17;;;24.10;26.10;;;;;;2252029;61;20373;-65
2024/03/16 05:53:24;0.00;0.00;0.62;0.00;0.00;0.62;2.90;2.40;;;24.10;26.20;;;;;;2252460;61;20930;-64
2024/03/16 05:55:50;0.00;0.00;0.62;0.00;0.00;0.62;3.60;2.20;;;24.10;26.20;;;;;;2255549;61;20358;-65
2024/03/16 05:58:16;0.00;0.00;0.62;0.00;0.00;0.62;2.87;2.27;;;24.10;26.20;;;;;;2255664;61;20407;-67
2024/03/16 06:00:44;0.00;0.00;0.62;0.00;0.00;0.62;3.03;2.03;;;24.10;26.20;;;;;;2255175;61;20445;-64
2024/03/16 06:03:10;0.00;0.00;0.62;0.00;0.00;0.62;3.03;1.90;;;24.10;26.20;;;;;;2252536;61;20763;-63
2024/03/16 06:05:36;0.00;0.00;0.62;0.00;0.00;0.62;2.60;2.03;;;24.10;26.20;;;;;;2249013;61;20366;-64
2024/03/16 06:08:04;0.00;0.00;0.62;0.00;0.00;0.62;3.00;2.00;;;24.10;26.20;;;;;;2249626;61;20385;-64
2024/03/16 06:10:31;0.00;0.00;0.62;0.00;0.00;0.62;3.10;1.60;;;24.10;26.20;;;;;;2253094;61;20350;-65
2024/03/16 06:12:57;0.00;0.00;0.62;0.00;0.00;0.62;3.80;1.93;;;24.00;26.20;;;;;;2249851;61;20352;-67
2024/03/16 06:15:24;0.00;0.00;0.62;0.00;0.00;0.62;3.20;1.93;;;24.10;26.20;;;;;;2251823;61;20389;-66
2024/03/16 06:17:51;0.00;0.00;0.62;0.00;0.00;0.62;3.57;2.40;;;24.10;26.20;;;;;;2252470;61;20366;-63
2024/03/16 06:20:18;0.00;0.00;0.62;0.00;0.00;0.62;4.03;2.10;;;24.00;26.20;;;;;;2252316;61;20386;-64
2024/03/16 06:22:48;0.00;0.00;0.62;0.00;0.00;0.62;3.03;2.37;;;24.00;26.20;;;;;;2251896;61;20448;-67
2024/03/16 06:25:16;0.00;0.00;0.62;0.00;0.00;0.62;2.60;1.83;;;24.00;26.20;;;;;;2252526;61;20377;-64
2024/03/16 06:27:54;0.00;0.00;0.62;0.00;0.00;0.62;2.90;2.20;;;24.00;26.20;;;;;;2252370;61;20357;-62
2024/03/16 06:30:26;0.00;0.00;0.62;0.00;0.00;0.62;3.50;2.17;;;24.00;26.20;;;;;;2252281;61;20358;-65
2024/03/16 06:33:05;0.00;0.00;0.62;0.00;0.00;0.62;3.00;1.87;;;24.00;26.20;;;;;;2252805;61;20425;-66
2024/03/16 06:35:32;0.00;0.00;0.62;0.00;0.00;0.62;3.50;2.30;;;24.00;26.20;;;;;;2253058;61;20381;-66
2024/03/16 06:37:59;0.00;0.00;0.62;0.00;0.00;0.62;3.23;2.33;;;24.00;26.20;;;;;;2249416;61;20422;-64
2024/03/16 06:40:25;0.00;0.00;0.62;0.00;0.00;0.62;3.40;2.30;;;24.00;26.20;;;;;;2252972;61;20442;-66
2024/03/16 06:42:51;0.00;0.00;0.62;0.00;0.00;0.62;2.70;2.00;;;24.00;26.20;;;;;;2252840;61;20371;-65
2024/03/16 06:45:18;0.00;0.00;0.62;0.00;0.00;0.62;2.90;2.17;;;24.00;26.20;;;;;;2252570;61;20405;-65
2024/03/16 06:47:44;0.00;0.00;0.62;0.00;0.00;0.62;2.50;1.87;;;24.00;26.30;;;;;;2255454;61;20346;-66
2024/03/16 06:50:11;0.00;0.00;0.62;0.00;0.00;0.62;3.17;2.00;;;24.00;26.30;;;;;;2255381;61;20361;-66
2024/03/16 06:52:37;0.00;0.00;0.62;0.00;0.00;0.62;2.57;2.07;;;24.00;26.30;;;;;;2255056;61;20401;-65
2024/03/16 06:55:04;0.00;0.00;0.62;0.00;0.00;0.62;2.93;2.37;;;24.00;26.30;;;;;;2249027;61;20389;-65
2024/03/16 06:57:30;0.00;0.00;0.62;0.00;0.00;0.62;2.73;2.00;;;24.00;26.30;;;;;;2248810;61;20372;-66
2024/03/16 06:59:56;0.00;0.00;0.62;0.00;0.00;0.62;2.43;1.70;;;24.00;26.30;;;;;;2249702;61;20402;-65
2024/03/16 07:02:22;0.00;0.00;0.62;0.00;0.00;0.62;2.70;2.20;;;24.00;26.30;;;;;;2256180;61;20461;-65
2024/03/16 07:04:49;0.00;0.00;0.62;0.00;0.00;0.62;2.57;2.27;;;24.00;26.30;;;;;;2256102;61;20349;-65
2024/03/16 07:07:15;0.00;0.00;0.62;0.00;0.00;0.62;3.17;2.20;;;24.00;26.30;;;;;;2251733;61;20399;-64
2024/03/16 07:09:41;0.00;0.00;0.62;0.00;0.00;0.62;3.83;2.43;;;24.00;26.30;;;;;;2248861;61;20751;-65
2024/03/16 07:12:08;0.00;0.00;0.62;0.00;0.00;0.62;3.37;2.50;;;24.00;26.30;;;;;;2248620;61;20388;-64
2024/03/16 07:14:34;0.00;0.00;0.62;0.00;0.00;0.62;2.60;2.10;;;24.00;26.30;;;;;;2248507;61;20416;-65
2024/03/16 07:17:00;0.00;0.00;0.62;0.00;0.00;0.62;2.80;2.17;;;24.00;26.30;;;;;;2252166;61;20435;-65
2024/03/16 07:19:28;0.00;0.00;0.62;0.00;0.00;0.62;2.67;2.00;;;24.00;26.40;;;;;;2252099;61;20360;-65
2024/03/16 07:21:54;0.00;0.00;0.62;0.00;0.00;0.62;3.50;2.27;;;24.00;26.40;;;;;;2252410;61;20365;-64
2024/03/16 07:24:21;0.00;0.00;0.62;0.00;0.00;0.62;3.00;2.00;;;24.00;26.40;;;;;;2256151;61;20356;-64
2024/03/16 07:26:47;0.00;0.00;0.62;0.00;0.00;0.62;3.90;2.43;;;24.00;26.40;;;;;;2255938;61;20467;-63
2024/03/16 07:29:14;0.00;0.00;0.62;0.00;0.00;0.62;2.73;2.33;;;24.00;26.40;;;;;;2255607;61;20652;-64
2024/03/16 07:31:40;0.00;0.00;0.62;0.00;0.00;0.62;3.20;2.10;;;24.00;26.40;;;;;;2255937;61;20373;-64
2024/03/16 07:34:06;0.00;0.00;0.62;0.00;0.00;0.62;3.17;2.47;;;24.00;26.40;;;;;;2256072;61;20353;-65
2024/03/16 07:36:33;0.00;0.00;0.62;0.00;0.00;0.62;3.03;2.13;;;24.00;26.40;;;;;;2255702;61;20376;-65
2024/03/16 07:38:59;0.00;0.00;0.62;0.00;0.00;0.62;2.90;2.00;;;24.00;26.40;;;;;;2252824;61;20357;-65
2024/03/16 07:41:26;0.00;0.00;0.62;0.00;0.00;0.62;3.30;2.33;;;24.00;26.40;;;;;;2252697;61;20348;-65
2024/03/16 07:43:52;0.00;0.00;0.62;0.00;0.00;0.62;3.10;2.13;;;24.00;26.50;;;;;;2252331;61;20386;-64
2024/03/16 07:46:21;0.00;0.00;0.62;0.00;0.00;0.62;3.50;2.27;;;24.00;26.50;;;;;;2252833;61;20377;-65
2024/03/16 07:48:49;0.00;0.00;0.62;0.00;0.00;0.62;3.20;2.10;;;23.90;26.40;;;;;;2252990;61;20361;-65
2024/03/16 07:51:16;0.00;0.00;0.62;0.00;0.00;0.62;3.17;2.13;;;24.00;26.50;;;;;;2252205;61;20373;-65
2024/03/16 07:53:43;0.00;0.00;0.62;0.00;0.00;0.62;2.53;2.33;;;24.00;26.50;;;;;;2256049;61;20754;-65
2024/03/16 07:56:09;0.00;0.00;0.62;0.00;0.00;0.62;3.23;2.43;;;24.00;26.50;;;;;;2256201;61;20380;-65
2024/03/16 07:58:39;0.00;0.00;0.62;0.00;0.00;0.62;3.20;2.30;;;24.00;26.40;;;;;;2255696;61;20387;-65
2024/03/16 08:01:05;0.00;0.00;0.62;0.00;0.00;0.62;4.37;2.50;;;24.00;26.40;;;;;;2252904;61;20790;-65
2024/03/16 08:03:31;0.00;0.00;0.62;0.00;0.00;0.62;2.60;2.40;;;24.00;26.40;;;;;;2256058;61;20352;-64
2024/03/16 08:06:03;0.00;0.00;0.62;0.00;0.00;0.62;3.83;2.80;;;23.90;26.40;;;;;;2255619;61;20369;-65
2024/03/16 08:08:30;0.00;0.00;0.62;0.00;0.00;0.62;4.37;3.20;;;23.90;26.40;;;;;;2255446;61;20349;-65
2024/03/16 08:10:56;0.00;0.00;0.62;0.00;0.00;0.62;2.93;2.50;;;24.00;26.40;;;;;;2248659;61;20382;-65
2024/03/16 08:13:22;0.00;0.00;0.62;0.00;0.00;0.62;4.00;3.13;;;23.90;26.30;;;;;;2248452;61;20437;-65
2024/03/16 08:15:49;0.00;0.00;0.62;0.00;0.00;0.62;4.07;2.73;;;24.00;26.40;;;;;;2251013;61;20448;-64
2024/03/16 08:18:15;0.00;0.00;0.62;0.00;0.00;0.62;3.20;2.73;;;23.90;26.30;;;;;;2251939;61;20805;-64
2024/03/16 08:20:42;0.00;0.00;0.62;0.00;0.00;0.62;4.17;3.00;;;24.00;26.40;;;;;;2251670;61;20893;-65
2024/03/16 08:23:08;0.00;0.00;0.62;0.00;0.00;0.62;3.93;2.90;;;24.00;26.40;;;;;;2256073;61;20349;-65
2024/03/16 08:25:34;0.00;0.00;0.62;0.00;0.00;0.62;3.20;2.53;;;23.90;26.30;;;;;;2255902;61;20901;-65
2024/03/16 08:28:01;0.00;0.00;0.62;0.00;0.00;0.62;5.27;2.83;;;23.90;26.30;;;;;;2255893;61;20462;-64
2024/03/16 08:30:27;0.00;0.00;0.62;0.00;0.00;0.62;5.93;3.70;;;23.90;26.30;;;;;;2254674;61;20416;-64
2024/03/16 08:32:54;0.00;0.00;0.62;0.00;0.00;0.62;4.40;3.13;;;23.90;26.30;;;;;;2248720;61;20357;-64
2024/03/16 08:35:21;0.00;0.00;0.62;0.00;0.00;0.62;4.90;3.60;;;23.90;26.30;;;;;;2248532;61;20370;-63
2024/03/16 08:37:47;0.00;0.00;0.62;0.00;0.00;0.62;3.60;2.83;;;23.90;26.30;;;;;;2251336;61;20571;-65
2024/03/16 08:40:15;0.00;0.00;0.62;0.00;0.00;0.62;3.80;3.10;;;23.90;26.30;;;;;;2251843;61;20382;-65
2024/03/16 08:42:42;0.00;0.00;0.62;0.00;0.00;0.62;4.80;4.10;;;23.90;26.30;;;;;;2255057;61;20354;-64
2024/03/16 08:45:09;0.00;0.00;0.62;0.00;0.00;0.62;6.43;4.23;;;23.90;26.30;;;;;;2251410;61;20385;-65
2024/03/16 08:47:36;0.00;0.00;0.62;0.00;0.00;0.62;4.57;3.50;;;23.90;26.30;;;;;;2252023;61;20836;-65
2024/03/16 08:50:04;0.00;0.00;0.62;0.00;0.00;0.62;5.03;3.30;;;23.90;26.30;;;;;;2251547;61;20412;-65
2024/03/16 08:52:31;0.00;0.00;0.62;0.00;0.00;0.62;3.83;3.20;;;23.90;26.30;;;;;;2251590;61;20373;-65
2024/03/16 08:54:57;0.00;0.00;0.62;0.00;0.00;0.62;3.30;3.00;;;23.90;26.30;;;;;;2251971;61;20708;-65
2024/03/16 08:57:23;0.00;0.00;0.62;0.00;0.00;0.62;3.13;2.80;;;23.90;26.20;;;;;;2251811;61;20378;-64
2024/03/16 08:59:51;0.00;0.00;0.62;0.00;0.00;0.62;3.77;2.40;;;23.90;26.20;;;;;;2252073;61;20380;-65
2024/03/16 09:02:19;0.00;0.00;0.62;0.00;0.00;0.62;3.13;2.20;;;23.90;26.20;;;;;;2252901;61;20885;-65
2024/03/16 09:04:46;0.00;0.00;0.62;0.00;0.00;0.62;3.63;2.37;;;23.90;26.60;;;;;;2252627;61;20384;-65
2024/03/16 09:07:12;0.00;0.00;0.62;0.00;0.00;0.62;2.87;2.57;;;23.90;26.10;;;;;;2251577;61;20350;-65
2024/03/16 09:09:40;0.00;0.00;0.62;0.00;0.00;0.62;2.90;2.10;;;23.90;26.60;;;;;;2251878;61;20361;-65
2024/03/16 09:12:06;0.00;0.00;0.62;0.00;0.00;0.62;2.60;1.97;;;23.90;26.10;;;;;;2251761;61;20456;-65
2024/03/16 09:14:33;0.00;0.00;0.62;0.00;0.00;0.62;3.07;2.27;;;23.90;26.10;;;;;;2251306;61;20373;-65
2024/03/16 09:16:59;0.00;0.00;0.62;0.00;0.00;0.62;2.73;1.80;;;23.90;26.10;;;;;;2251760;61;20369;-65
2024/03/16 09:19:26;0.00;0.00;0.62;0.00;0.00;0.62;2.20;1.50;;;23.90;26.00;;;;;;2251863;61;20358;-65
2024/03/16 09:21:52;0.00;0.00;0.62;0.00;0.00;0.62;3.00;2.30;;;23.90;26.00;;;;;;2251136;61;20785;-65
2024/03/16 09:24:18;0.00;0.00;0.62;0.00;0.00;0.62;2.80;1.70;;;23.90;26.00;;;;;;2248536;61;20358;-65
2024/03/16 09:26:45;0.00;0.00;0.62;0.00;0.00;0.62;4.57;2.30;;;23.90;26.00;;;;;;2251661;61;20420;-65
2024/03/16 09:29:11;0.00;0.00;0.62;0.00;0.00;0.62;2.83;1.93;;;23.90;26.00;;;;;;2251195;61;20358;-65
2024/03/16 09:31:37;0.00;0.00;0.62;0.00;0.00;0.62;3.20;1.87;;;23.80;25.90;;;;;;2251471;61;20374;-65
2024/03/16 09:34:04;0.00;0.00;0.62;0.00;0.00;0.62;2.37;1.73;;;23.80;25.90;;;;;;2251787;61;20361;-65
2024/03/16 09:36:31;0.00;0.00;0.62;0.00;0.00;0.62;3.80;2.17;;;23.80;25.90;;;;;;2251209;61;20416;-66
2024/03/16 09:38:57;0.00;0.00;0.62;0.00;0.00;0.62;3.87;1.97;;;23.80;25.90;;;;;;2252302;61;20400;-65
2024/03/16 09:41:24;0.00;0.00;0.62;0.00;0.00;0.62;3.33;1.87;;;23.80;25.90;;;;;;2252362;61;20880;-65